Time;durP1;ratioP1;P1;durP2;ratioP2;P2;SDS_P1;SDS_P2;PMS_P1;PMS_P2;Temp;Humidity;BMP_temperature;BMP_pressure;BME280_temperature;BME280_humidity;BME280_pressure;Samples;Min_cycle;Max_cycle;Signal;HPM_P1;HPM_P2
2023/04/27 00:01:41;;;;;;;5.38;4.88;;;14.30;99.90;;;;;;5073402;28;20025;-70
2023/04/27 00:04:07;;;;;;;5.60;5.10;;;14.30;99.90;;;;;;5071529;28;20048;-70
2023/04/27 00:06:33;;;;;;;5.78;5.25;;;14.20;99.90;;;;;;5073876;28;20024;-70
2023/04/27 00:09:00;;;;;;;5.38;4.93;;;14.20;99.90;;;;;;5074245;28;20032;-70
2023/04/27 00:11:26;;;;;;;5.53;5.03;;;14.10;99.90;;;;;;5073275;28;20036;-70
2023/04/27 00:13:52;;;;;;;5.22;4.72;;;14.10;99.90;;;;;;5074374;28;20033;-70
2023/04/27 00:16:18;;;;;;;4.90;4.50;;;14.10;99.90;;;;;;5072670;28;20426;-70
2023/04/27 00:18:44;;;;;;;5.57;5.00;;;14.10;99.90;;;;;;5073011;28;20049;-70
2023/04/27 00:21:10;;;;;;;5.72;5.18;;;14.10;99.90;;;;;;5073610;28;20390;-70
2023/04/27 00:23:36;;;;;;;6.07;5.47;;;14.00;99.90;;;;;;5071783;28;20033;-70
2023/04/27 00:26:03;;;;;;;6.50;5.55;;;14.00;99.90;;;;;;5074088;28;20502;-70
2023/04/27 00:28:29;;;;;;;5.97;5.43;;;14.00;99.90;;;;;;5071246;28;20035;-70
2023/04/27 00:30:55;;;;;;;5.03;4.63;;;14.00;99.90;;;;;;5072415;28;20403;-70
2023/04/27 00:33:21;;;;;;;5.80;4.78;;;13.90;99.90;;;;;;5055115;28;20039;-70
2023/04/27 00:35:47;;;;;;;6.05;5.47;;;13.90;99.90;;;;;;5071519;28;20032;-70
2023/04/27 00:38:13;;;;;;;6.10;5.50;;;13.90;99.90;;;;;;5071719;28;20037;-70
2023/04/27 00:40:39;;;;;;;6.10;5.57;;;13.90;99.90;;;;;;5071604;28;20028;-70
2023/04/27 00:43:05;;;;;;;6.55;5.95;;;13.80;99.90;;;;;;5073532;28;20035;-70
2023/04/27 00:45:34;;;;;;;6.25;5.68;;;13.80;99.90;;;;;;5072393;28;20426;-70
2023/04/27 00:48:00;;;;;;;6.07;5.45;;;13.90;99.90;;;;;;5072247;28;20057;-70
2023/04/27 00:50:29;;;;;;;5.78;5.28;;;13.90;99.90;;;;;;5055344;28;20020;-71
2023/04/27 00:52:55;;;;;;;6.32;5.50;;;13.90;99.90;;;;;;5070534;28;20055;-70
2023/04/27 00:55:22;;;;;;;5.95;5.35;;;13.80;99.90;;;;;;5071509;28;20033;-70
2023/04/27 00:57:48;;;;;;;6.55;5.20;;;13.60;99.90;;;;;;5072817;28;20047;-71
2023/04/27 01:00:14;;;;;;;7.65;5.75;;;13.50;99.90;;;;;;5066848;28;20425;-70
2023/04/27 01:02:40;;;;;;;5.97;5.47;;;13.60;99.90;;;;;;5070247;28;20048;-70
2023/04/27 01:05:07;;;;;;;6.30;5.60;;;13.60;99.90;;;;;;5071603;28;20044;-70
2023/04/27 01:07:37;;;;;;;6.00;5.40;;;13.50;99.90;;;;;;5055222;28;20051;-70
2023/04/27 01:10:05;;;;;;;6.55;5.97;;;13.50;99.90;;;;;;5071717;28;20037;-71
2023/04/27 01:12:31;;;;;;;5.35;4.85;;;13.50;99.90;;;;;;5072725;28;20047;-71
2023/04/27 01:14:57;;;;;;;6.10;4.90;;;13.50;99.90;;;;;;5071427;28;20039;-70
2023/04/27 01:17:23;;;;;;;5.63;5.00;;;13.50;99.90;;;;;;5069856;28;20028;-70
2023/04/27 01:19:50;;;;;;;5.75;4.85;;;13.40;99.90;;;;;;5071922;28;20040;-70
2023/04/27 01:22:16;;;;;;;5.40;4.90;;;13.40;99.90;;;;;;5071456;28;20023;-70
2023/04/27 01:24:43;;;;;;;5.82;5.20;;;13.50;99.90;;;;;;5071190;28;20032;-70
2023/04/27 01:27:09;;;;;;;5.68;5.18;;;13.50;99.90;;;;;;5071359;28;20044;-70
2023/04/27 01:29:35;;;;;;;6.10;5.53;;;13.50;99.90;;;;;;5069882;28;20467;-71
2023/04/27 01:32:01;;;;;;;5.47;4.80;;;13.50;99.90;;;;;;5069907;28;20032;-70
2023/04/27 01:34:27;;;;;;;6.88;5.72;;;13.50;99.90;;;;;;5071823;28;20035;-70
2023/04/27 01:36:53;;;;;;;5.65;5.15;;;13.50;99.90;;;;;;5071477;28;20040;-70
2023/04/27 01:39:19;;;;;;;6.88;5.35;;;13.50;99.90;;;;;;5071072;28;20033;-70
2023/04/27 01:41:45;;;;;;;5.93;5.40;;;13.40;99.90;;;;;;5072296;28;20506;-70
2023/04/27 01:44:11;;;;;;;6.15;5.20;;;13.40;99.90;;;;;;5072338;28;20037;-70
2023/04/27 01:46:38;;;;;;;5.82;4.95;;;13.30;99.90;;;;;;5069883;28;20483;-70
2023/04/27 01:49:04;;;;;;;4.88;4.47;;;13.30;99.90;;;;;;5072004;28;20029;-70
2023/04/27 01:51:31;;;;;;;6.05;4.75;;;13.30;99.90;;;;;;5069154;28;20040;-70
2023/04/27 01:53:57;;;;;;;5.65;5.15;;;13.30;99.90;;;;;;5069872;28;20041;-71
2023/04/27 01:56:23;;;;;;;6.10;4.95;;;13.40;99.90;;;;;;5072218;28;20398;-70
2023/04/27 01:58:51;;;;;;;4.97;4.57;;;13.30;99.90;;;;;;5071883;28;20047;-70
2023/04/27 02:01:18;;;;;;;5.68;5.10;;;13.40;99.90;;;;;;5066821;28;20033;-71
2023/04/27 02:03:44;;;;;;;7.28;5.20;;;13.30;99.90;;;;;;5062950;28;20035;-70
2023/04/27 02:06:10;;;;;;;6.03;5.43;;;13.30;99.90;;;;;;5065196;28;20032;-71
2023/04/27 02:08:36;;;;;;;6.10;5.50;;;13.30;99.90;;;;;;5065230;28;20352;-70
2023/04/27 02:11:02;;;;;;;7.32;5.95;;;13.30;99.90;;;;;;5064497;28;20035;-71
2023/04/27 02:13:28;;;;;;;6.78;6.10;;;13.20;99.90;;;;;;5070697;28;20029;-71
2023/04/27 02:15:55;;;;;;;7.03;6.22;;;13.20;99.90;;;;;;5069944;28;20036;-70
2023/04/27 02:18:21;;;;;;;6.53;5.93;;;13.10;99.90;;;;;;5069948;28;20032;-71
2023/04/27 02:20:47;;;;;;;6.30;5.70;;;13.00;99.90;;;;;;5068034;28;20041;-71
2023/04/27 02:23:13;;;;;;;6.10;5.50;;;13.00;99.90;;;;;;5069709;28;20029;-71
2023/04/27 02:25:43;;;;;;;7.13;6.05;;;13.00;99.90;;;;;;5078968;28;20037;-71
2023/04/27 02:28:09;;;;;;;7.40;5.93;;;13.00;99.90;;;;;;5069048;28;20471;-70
2023/04/27 02:30:36;;;;;;;7.28;6.57;;;13.00;99.90;;;;;;5058523;28;20037;-71
2023/04/27 02:33:02;;;;;;;7.38;6.03;;;13.00;99.90;;;;;;5049608;28;20029;-71
2023/04/27 02:35:28;;;;;;;7.10;6.40;;;13.00;99.90;;;;;;5065966;28;20028;-70
2023/04/27 02:37:54;;;;;;;7.00;6.32;;;13.00;99.90;;;;;;5071177;28;20032;-70
2023/04/27 02:40:20;;;;;;;9.57;7.03;;;12.90;99.90;;;;;;5071679;28;20045;-71
2023/04/27 02:42:46;;;;;;;7.13;6.38;;;12.90;99.90;;;;;;5070183;28;20029;-71
2023/04/27 02:45:12;;;;;;;7.20;6.15;;;12.90;99.90;;;;;;5069954;27;20045;-70
2023/04/27 02:47:38;;;;;;;7.25;5.85;;;12.90;99.90;;;;;;5073930;28;20032;-70
2023/04/27 02:50:05;;;;;;;7.05;6.35;;;12.90;99.90;;;;;;5075493;28;20040;-71
2023/04/27 02:52:31;;;;;;;7.38;6.07;;;12.90;99.90;;;;;;5075009;28;20415;-70
2023/04/27 02:54:57;;;;;;;7.57;6.10;;;12.90;99.90;;;;;;5074085;28;20040;-70
2023/04/27 02:57:23;;;;;;;6.60;6.00;;;12.90;99.90;;;;;;5074742;28;20053;-70
2023/04/27 02:59:49;;;;;;;7.25;5.93;;;12.80;99.90;;;;;;5072834;28;20048;-70
2023/04/27 03:02:15;;;;;;;11.98;6.22;;;12.80;99.90;;;;;;5074290;28;20041;-70
2023/04/27 03:04:42;;;;;;;7.65;6.47;;;12.80;99.90;;;;;;5067658;28;20037;-70
2023/04/27 03:07:08;;;;;;;22.90;6.85;;;12.70;99.90;;;;;;5075361;28;20033;-70
2023/04/27 03:09:34;;;;;;;9.63;7.10;;;12.60;99.90;;;;;;5073131;28;20367;-70
2023/04/27 03:12:01;;;;;;;9.10;7.45;;;12.60;99.90;;;;;;5074168;28;20039;-71
2023/04/27 03:14:27;;;;;;;9.25;7.60;;;12.60;99.90;;;;;;5075076;28;20376;-70
2023/04/27 03:16:55;;;;;;;14.02;7.82;;;12.50;99.90;;;;;;5074565;28;20036;-71
2023/04/27 03:19:22;;;;;;;24.08;7.78;;;12.60;99.90;;;;;;5073686;28;20045;-71
2023/04/27 03:21:48;;;;;;;20.45;7.25;;;12.60;99.90;;;;;;5072747;28;20390;-71
2023/04/27 03:24:14;;;;;;;73.45;7.90;;;12.70;99.90;;;;;;5073546;28;20029;-70
2023/04/27 03:26:40;;;;;;;20.58;7.47;;;12.70;99.90;;;;;;5072596;28;20028;-71
2023/04/27 03:29:06;;;;;;;50.95;8.52;;;12.60;99.90;;;;;;5074259;28;20037;-71
2023/04/27 03:31:32;;;;;;;13.38;8.25;;;12.60;99.90;;;;;;5074005;28;20051;-71
2023/04/27 03:33:58;;;;;;;16.95;8.60;;;12.60;99.90;;;;;;5074599;28;20032;-70
2023/04/27 03:36:25;;;;;;;27.23;8.23;;;12.70;99.90;;;;;;5073048;28;20028;-70
2023/04/27 03:38:51;;;;;;;55.60;9.40;;;12.60;99.90;;;;;;5057342;28;20430;-70
2023/04/27 03:41:18;;;;;;;30.38;9.02;;;12.70;99.90;;;;;;5073496;28;20024;-71
2023/04/27 03:43:44;;;;;;;12.38;9.27;;;12.60;99.90;;;;;;5073952;28;20025;-71
2023/04/27 03:46:10;;;;;;;21.15;8.65;;;12.60;99.90;;;;;;5073996;28;20028;-71
2023/04/27 03:48:36;;;;;;;13.05;8.95;;;12.60;99.90;;;;;;5074332;28;20033;-71
2023/04/27 03:51:02;;;;;;;10.55;8.73;;;12.60;99.90;;;;;;5073154;28;20029;-70
2023/04/27 03:53:28;;;;;;;8.77;7.65;;;12.60;99.90;;;;;;5074167;28;20028;-71
2023/04/27 03:55:54;;;;;;;9.13;7.60;;;12.50;99.90;;;;;;5072351;28;20040;-71
2023/04/27 03:58:20;;;;;;;9.60;7.85;;;12.50;99.90;;;;;;5073265;28;20040;-70
2023/04/27 04:00:46;;;;;;;10.75;8.13;;;12.50;99.90;;;;;;5073812;28;20045;-71
2023/04/27 04:03:12;;;;;;;9.40;8.32;;;12.50;99.90;;;;;;5072320;28;20043;-71
2023/04/27 04:05:38;;;;;;;9.02;7.28;;;12.50;99.90;;;;;;5068796;28;20033;-71
2023/04/27 04:08:05;;;;;;;9.07;7.50;;;12.50;99.90;;;;;;5054163;28;20037;-71
2023/04/27 04:10:31;;;;;;;21.73;8.40;;;12.50;99.90;;;;;;5072724;28;20051;-71
2023/04/27 04:12:57;;;;;;;10.73;8.13;;;12.50;99.90;;;;;;5072627;28;20033;-71
2023/04/27 04:15:23;;;;;;;11.10;8.07;;;12.50;99.90;;;;;;5068817;28;20052;-71
2023/04/27 04:17:50;;;;;;;7.47;6.68;;;12.40;99.90;;;;;;5071709;28;20048;-70
2023/04/27 04:20:16;;;;;;;8.00;7.13;;;12.00;99.90;;;;;;5071986;28;20060;-71
2023/04/27 04:22:43;;;;;;;8.45;7.40;;;11.80;99.90;;;;;;5073910;28;20039;-71
2023/04/27 04:25:09;;;;;;;9.82;7.55;;;11.60;99.90;;;;;;5073410;28;20036;-71
2023/04/27 04:27:35;;;;;;;8.65;7.30;;;11.50;99.90;;;;;;5055590;28;20032;-71
2023/04/27 04:30:03;;;;;;;8.65;7.22;;;11.40;99.90;;;;;;5074064;28;20043;-71
2023/04/27 04:32:30;;;;;;;9.65;7.75;;;11.50;99.90;;;;;;5072946;28;20051;-71
2023/04/27 04:34:56;;;;;;;12.32;8.18;;;11.60;99.90;;;;;;5055693;28;20043;-71
2023/04/27 04:37:22;;;;;;;10.15;7.70;;;11.60;99.90;;;;;;5072830;28;20029;-70
2023/04/27 04:39:49;;;;;;;23.50;8.30;;;11.50;99.90;;;;;;5071532;28;20051;-71
2023/04/27 04:42:15;;;;;;;27.77;9.45;;;11.40;99.90;;;;;;5071869;28;20028;-71
2023/04/27 04:44:41;;;;;;;17.92;8.57;;;11.20;99.90;;;;;;5073201;28;20143;-70
2023/04/27 04:47:08;;;;;;;18.08;9.77;;;11.00;99.90;;;;;;5069999;28;20060;-71
2023/04/27 04:49:35;;;;;;;27.63;9.35;;;10.80;99.90;;;;;;5071274;28;20024;-70
2023/04/27 04:52:03;;;;;;;36.50;7.95;;;10.90;99.90;;;;;;5054914;28;20040;-71
2023/04/27 04:54:29;;;;;;;29.10;9.48;;;10.90;99.90;;;;;;5072944;28;20036;-71
2023/04/27 04:56:57;;;;;;;23.40;9.43;;;10.90;99.90;;;;;;5057103;28;20047;-71
2023/04/27 04:59:24;;;;;;;20.83;9.77;;;10.90;99.90;;;;;;5070821;28;20498;-71
2023/04/27 05:01:54;;;;;;;78.90;9.60;;;10.90;99.90;;;;;;5072369;28;20044;-70
2023/04/27 05:04:20;;;;;;;32.63;7.90;;;10.80;99.90;;;;;;5064159;28;20028;-71
2023/04/27 05:06:47;;;;;;;86.15;9.10;;;10.60;99.90;;;;;;5059222;28;20037;-70
2023/04/27 05:09:13;;;;;;;35.35;7.35;;;10.60;99.90;;;;;;5070928;28;20051;-70
2023/04/27 05:11:39;;;;;;;34.33;7.32;;;10.60;99.90;;;;;;5072780;28;20464;-70
2023/04/27 05:14:05;;;;;;;25.33;7.97;;;10.60;99.90;;;;;;5072241;28;20039;-70
2023/04/27 05:16:31;;;;;;;25.30;7.43;;;10.60;99.90;;;;;;5072051;28;20466;-70
2023/04/27 05:18:58;;;;;;;34.92;7.95;;;10.60;99.90;;;;;;5071243;28;20028;-71
2023/04/27 05:21:24;;;;;;;23.02;7.10;;;10.70;99.90;;;;;;5072354;28;20088;-71
2023/04/27 05:23:50;;;;;;;46.95;7.13;;;10.90;99.90;;;;;;5072024;28;20498;-70
2023/04/27 05:26:16;;;;;;;35.78;7.53;;;10.90;99.90;;;;;;5071202;28;20029;-71
2023/04/27 05:28:43;;;;;;;28.67;5.32;;;10.90;99.90;;;;;;5070230;28;20444;-70
2023/04/27 05:31:09;;;;;;;46.20;7.80;;;10.80;99.90;;;;;;5072108;28;20036;-71
2023/04/27 05:33:35;;;;;;;30.85;6.80;;;10.70;99.90;;;;;;5053865;28;20037;-71
2023/04/27 05:36:01;;;;;;;25.38;6.97;;;10.80;99.90;;;;;;5071801;28;20561;-71
2023/04/27 05:38:27;;;;;;;26.80;6.70;;;10.70;99.90;;;;;;5069537;28;20051;-70
2023/04/27 05:40:57;;;;;;;69.57;7.93;;;10.60;99.90;;;;;;5072056;28;20036;-70
2023/04/27 05:43:23;;;;;;;27.17;7.32;;;10.60;99.90;;;;;;5071838;28;20027;-71
2023/04/27 05:45:50;;;;;;;14.88;8.32;;;10.70;99.90;;;;;;5070183;28;20033;-71
2023/04/27 05:48:16;;;;;;;35.20;7.53;;;10.80;99.90;;;;;;5070885;28;20027;-71
2023/04/27 05:50:42;;;;;;;9.82;7.35;;;10.90;99.90;;;;;;5067207;28;20036;-71
2023/04/27 05:53:08;;;;;;;13.93;6.90;;;10.90;99.90;;;;;;5070609;28;20063;-71
2023/04/27 05:55:34;;;;;;;18.17;7.13;;;11.00;99.90;;;;;;5071737;28;20498;-71
2023/04/27 05:58:00;;;;;;;11.90;7.50;;;10.90;99.90;;;;;;5071890;28;20095;-71
2023/04/27 06:00:27;;;;;;;10.13;7.00;;;11.00;99.90;;;;;;5069096;28;20407;-71
2023/04/27 06:02:53;;;;;;;8.57;6.57;;;11.10;99.90;;;;;;5071534;28;20043;-71
2023/04/27 06:05:20;;;;;;;8.90;6.43;;;11.10;99.90;;;;;;5066673;28;20033;-72
2023/04/27 06:07:46;;;;;;;9.63;6.57;;;11.10;99.90;;;;;;5071064;28;20043;-71
2023/04/27 06:10:15;;;;;;;8.07;7.28;;;11.10;99.90;;;;;;5069073;28;20028;-71
2023/04/27 06:12:41;;;;;;;8.75;6.65;;;11.20;99.90;;;;;;5053962;28;20035;-71
2023/04/27 06:15:08;;;;;;;13.43;7.40;;;11.50;99.90;;;;;;5070437;28;20031;-71
2023/04/27 06:17:37;;;;;;;9.35;7.55;;;11.50;99.90;;;;;;5069209;28;20025;-71
2023/04/27 06:20:05;;;;;;;11.90;8.73;;;11.60;99.90;;;;;;5069541;28;20040;-71
2023/04/27 06:22:32;;;;;;;12.65;8.45;;;11.70;99.90;;;;;;5070557;28;20029;-71
2023/04/27 06:24:58;;;;;;;10.80;7.90;;;11.90;99.90;;;;;;5069969;28;20028;-71
2023/04/27 06:27:24;;;;;;;11.43;7.47;;;11.80;99.90;;;;;;5069615;28;20032;-71
2023/04/27 06:29:50;;;;;;;11.68;8.43;;;11.60;99.90;;;;;;5071499;28;20020;-71
2023/04/27 06:32:16;;;;;;;12.65;9.07;;;11.60;99.90;;;;;;5070903;28;20044;-71
2023/04/27 06:34:42;;;;;;;14.32;8.57;;;11.60;99.90;;;;;;5070385;28;20033;-71
2023/04/27 06:37:09;;;;;;;12.25;9.23;;;11.60;99.90;;;;;;5066959;28;20049;-71
2023/04/27 06:39:35;;;;;;;11.45;8.68;;;11.70;99.90;;;;;;5065410;28;20464;-71
2023/04/27 06:42:03;;;;;;;15.40;10.00;;;11.90;99.90;;;;;;5068600;28;20056;-71
2023/04/27 06:44:29;;;;;;;13.38;10.38;;;12.10;99.90;;;;;;5040597;28;20033;-71
2023/04/27 06:46:55;;;;;;;16.52;11.35;;;12.10;99.90;;;;;;5050930;28;20416;-71
2023/04/27 06:49:21;;;;;;;16.38;11.20;;;12.00;99.90;;;;;;5035919;28;20033;-71
2023/04/27 06:51:48;;;;;;;14.90;10.98;;;12.00;99.90;;;;;;5069209;28;20526;-71
2023/04/27 06:54:14;;;;;;;13.95;9.90;;;11.90;99.90;;;;;;5065823;28;20044;-71
2023/04/27 06:56:40;;;;;;;14.43;9.85;;;11.90;99.90;;;;;;5070375;28;20039;-71
2023/04/27 06:59:07;;;;;;;12.63;9.63;;;12.00;99.90;;;;;;5070599;28;20032;-71
2023/04/27 07:01:33;;;;;;;10.00;9.00;;;12.10;99.90;;;;;;5048624;28;20055;-71
2023/04/27 07:03:59;;;;;;;10.93;8.80;;;12.30;99.90;;;;;;5070019;28;20031;-71
2023/04/27 07:06:25;;;;;;;10.95;9.27;;;12.30;99.90;;;;;;5068805;28;20517;-71
2023/04/27 07:08:51;;;;;;;13.68;9.30;;;12.40;99.90;;;;;;5066787;28;20036;-71
2023/04/27 07:11:17;;;;;;;11.23;9.23;;;12.50;99.90;;;;;;5067327;28;20037;-71
2023/04/27 07:13:43;;;;;;;10.95;9.20;;;12.50;99.90;;;;;;5067823;28;20036;-71
2023/04/27 07:16:10;;;;;;;12.23;10.15;;;12.60;99.90;;;;;;5068068;28;20032;-72
2023/04/27 07:18:36;;;;;;;12.00;9.50;;;12.80;99.90;;;;;;5068335;28;20029;-71
2023/04/27 07:21:02;;;;;;;12.18;9.70;;;13.00;99.90;;;;;;5067216;28;20040;-71
2023/04/27 07:23:28;;;;;;;11.68;9.02;;;13.10;99.90;;;;;;5067914;28;20028;-71
2023/04/27 07:25:54;;;;;;;13.60;9.55;;;13.10;99.90;;;;;;5069585;28;20024;-72
2023/04/27 07:28:20;;;;;;;15.23;9.85;;;13.30;99.90;;;;;;5069981;28;20032;-71
2023/04/27 07:30:46;;;;;;;12.75;10.13;;;13.40;99.90;;;;;;5068885;28;20431;-71
2023/04/27 07:33:12;;;;;;;13.65;10.80;;;13.50;99.90;;;;;;5069480;28;20033;-71
2023/04/27 07:35:38;;;;;;;13.80;10.70;;;13.60;99.90;;;;;;5071922;28;20091;-71
2023/04/27 07:38:06;;;;;;;15.02;10.05;;;13.70;99.90;;;;;;5066749;28;20036;-71
2023/04/27 07:40:33;;;;;;;12.10;10.15;;;13.60;99.90;;;;;;5068430;28;20037;-70
2023/04/27 07:42:59;;;;;;;13.65;10.13;;;13.70;99.90;;;;;;5068373;28;20394;-71
2023/04/27 07:45:32;;;;;;;12.40;10.85;;;13.80;99.90;;;;;;5053878;28;20032;-71
2023/04/27 07:47:59;;;;;;;14.73;11.57;;;13.90;99.90;;;;;;5073387;28;20383;-71
2023/04/27 07:50:29;;;;;;;12.52;11.10;;;13.90;99.90;;;;;;5072119;28;20032;-71
2023/04/27 07:52:55;;;;;;;14.40;10.40;;;14.00;99.90;;;;;;5070653;28;20372;-71
2023/04/27 07:55:22;;;;;;;13.00;11.00;;;14.10;99.90;;;;;;5067562;28;20044;-71
2023/04/27 07:57:52;;;;;;;12.65;11.05;;;14.10;99.90;;;;;;5066361;28;20064;-70
2023/04/27 08:00:18;;;;;;;14.07;11.50;;;14.20;99.90;;;;;;5068377;28;20028;-70
2023/04/27 08:02:45;;;;;;;12.13;10.38;;;14.30;99.90;;;;;;5067659;28;20028;-70
2023/04/27 08:05:11;;;;;;;11.30;10.10;;;14.30;99.90;;;;;;5053325;28;20483;-70
2023/04/27 08:07:37;;;;;;;12.57;10.70;;;14.30;99.90;;;;;;5069350;28;20040;-71
2023/04/27 08:10:03;;;;;;;11.95;10.65;;;14.30;99.90;;;;;;5051748;28;20487;-71
2023/04/27 08:12:29;;;;;;;10.68;9.55;;;14.30;99.90;;;;;;5072442;28;20032;-70
2023/04/27 08:14:56;;;;;;;11.20;8.88;;;14.40;99.90;;;;;;5066620;28;20036;-71
2023/04/27 08:17:22;;;;;;;10.07;9.07;;;14.50;99.90;;;;;;5052226;28;20491;-72
2023/04/27 08:19:48;;;;;;;11.25;10.13;;;14.50;99.90;;;;;;5071602;28;20025;-72
2023/04/27 08:22:14;;;;;;;11.60;9.57;;;14.60;99.90;;;;;;5068844;28;20063;-72
2023/04/27 08:24:40;;;;;;;12.13;9.50;;;14.70;99.90;;;;;;5070370;28;20025;-72
2023/04/27 08:27:06;;;;;;;10.70;9.68;;;14.80;99.90;;;;;;5072743;28;20037;-71
2023/04/27 08:29:33;;;;;;;10.95;9.10;;;14.90;99.90;;;;;;5067565;28;20483;-72
2023/04/27 08:32:00;;;;;;;9.65;8.70;;;14.90;99.90;;;;;;5072227;28;20037;-72
2023/04/27 08:34:26;;;;;;;11.43;10.23;;;14.90;99.90;;;;;;5068397;28;20391;-72
2023/04/27 08:36:53;;;;;;;13.10;10.25;;;14.80;99.90;;;;;;5069087;28;20036;-72
2023/04/27 08:39:19;;;;;;;11.40;10.18;;;14.80;99.90;;;;;;5067263;28;20047;-72
2023/04/27 08:41:45;;;;;;;11.68;10.57;;;14.80;99.90;;;;;;5043268;27;20048;-72
2023/04/27 08:44:12;;;;;;;11.35;10.15;;;14.90;99.90;;;;;;5041996;28;20040;-72
2023/04/27 08:46:38;;;;;;;10.77;9.68;;;15.00;99.90;;;;;;5057417;28;20036;-72
2023/04/27 08:49:05;;;;;;;14.52;11.18;;;14.90;99.90;;;;;;5069752;28;20027;-72
2023/04/27 08:51:31;;;;;;;12.93;11.05;;;14.90;99.90;;;;;;5071238;28;20048;-72
2023/04/27 08:53:57;;;;;;;12.70;10.52;;;15.00;99.90;;;;;;5071193;28;20043;-72
2023/04/27 08:56:25;;;;;;;11.27;9.63;;;15.20;99.90;;;;;;5070104;28;20045;-72
2023/04/27 08:58:51;;;;;;;12.57;11.00;;;15.30;99.90;;;;;;5070749;28;20052;-72
2023/04/27 09:01:17;;;;;;;12.50;11.00;;;15.10;99.90;;;;;;5070956;27;20495;-71
2023/04/27 09:03:47;;;;;;;10.98;9.88;;;15.20;99.90;;;;;;5069590;28;20040;-72
2023/04/27 09:06:13;;;;;;;11.35;10.20;;;15.20;99.90;;;;;;5054005;28;20020;-72
2023/04/27 09:08:49;;;;;;;12.02;10.18;;;15.20;99.90;;;;;;5055163;28;20399;-72
2023/04/27 09:11:36;;;;;;;11.38;10.20;;;15.30;99.90;;;;;;5071457;28;20048;-72
2023/04/27 09:14:15;;;;;;;12.82;9.82;;;15.40;99.90;;;;;;5067864;28;20398;-72
2023/04/27 09:16:42;;;;;;;10.98;9.43;;;15.60;99.90;;;;;;5072180;27;20048;-72
2023/04/27 09:19:08;;;;;;;9.70;8.82;;;15.80;99.90;;;;;;5070643;28;20029;-72
2023/04/27 09:21:34;;;;;;;9.77;8.77;;;15.90;99.90;;;;;;5069655;28;20063;-72
2023/04/27 09:24:11;;;;;;;9.07;8.27;;;15.90;99.90;;;;;;5068900;28;20040;-72
2023/04/27 09:26:37;;;;;;;8.10;7.40;;;16.00;99.90;;;;;;5065402;28;20028;-72
2023/04/27 09:29:04;;;;;;;8.20;7.38;;;15.90;99.90;;;;;;5071235;28;20063;-72
2023/04/27 09:31:31;;;;;;;10.77;7.22;;;15.80;99.90;;;;;;5068747;28;20044;-72
2023/04/27 09:33:57;;;;;;;7.60;6.97;;;15.80;99.90;;;;;;5068094;28;20036;-72
2023/04/27 09:36:24;;;;;;;7.72;6.88;;;15.90;99.90;;;;;;5071445;28;20024;-72
2023/04/27 09:38:50;;;;;;;8.40;7.57;;;15.90;99.90;;;;;;5066495;28;20383;-72
2023/04/27 09:41:17;;;;;;;8.98;8.05;;;15.90;99.90;;;;;;5071668;28;20059;-72
2023/04/27 09:43:46;;;;;;;7.80;7.10;;;16.00;99.90;;;;;;5062421;28;20387;-72
2023/04/27 09:46:12;;;;;;;9.00;7.65;;;15.90;99.90;;;;;;5071629;28;20029;-72
2023/04/27 09:48:39;;;;;;;7.65;6.95;;;16.00;99.90;;;;;;5050124;28;20045;-72
2023/04/27 09:51:05;;;;;;;8.00;7.30;;;16.10;99.90;;;;;;5066948;28;20032;-71
2023/04/27 09:53:45;;;;;;;7.82;7.03;;;16.20;99.90;;;;;;5070560;28;20036;-72
2023/04/27 09:56:50;;;;;;;9.27;7.55;;;16.30;99.90;;;;;;5068180;28;20036;-72
2023/04/27 09:59:19;;;;;;;8.35;7.65;;;16.20;99.90;;;;;;5062169;28;20024;-72
2023/04/27 10:01:46;;;;;;;9.23;8.32;;;16.30;99.90;;;;;;5070578;28;20044;-72
2023/04/27 10:04:30;;;;;;;9.38;7.40;;;16.40;99.90;;;;;;5069607;28;20037;-72
2023/04/27 10:07:08;;;;;;;9.35;8.43;;;16.40;99.90;;;;;;5058408;28;20029;-72
2023/04/27 10:09:35;;;;;;;11.13;9.45;;;16.40;99.90;;;;;;5071028;28;20021;-72
2023/04/27 10:12:15;;;;;;;10.63;9.57;;;16.50;99.90;;;;;;5071934;28;20028;-72
2023/04/27 10:14:50;;;;;;;10.38;9.27;;;16.60;99.90;;;;;;5065518;28;20498;-72
2023/04/27 10:17:16;;;;;;;10.73;9.73;;;16.60;99.90;;;;;;5069556;28;20036;-72
2023/04/27 10:19:53;;;;;;;10.95;10.05;;;16.50;99.90;;;;;;5070805;28;20431;-72
2023/04/27 10:22:20;;;;;;;12.80;11.50;;;16.50;99.90;;;;;;5071171;28;20493;-72
2023/04/27 10:24:48;;;;;;;12.68;11.48;;;16.60;99.90;;;;;;5056552;28;20080;-72
2023/04/27 10:27:17;;;;;;;12.90;11.70;;;16.60;99.90;;;;;;5072025;28;20025;-72
2023/04/27 10:29:44;;;;;;;13.68;12.48;;;16.60;99.90;;;;;;5064766;28;20474;-72
2023/04/27 10:32:22;;;;;;;14.25;12.80;;;16.60;99.90;;;;;;5069874;28;20033;-72
2023/04/27 10:34:49;;;;;;;13.57;12.18;;;16.60;99.90;;;;;;5068917;28;20040;-72
2023/04/27 10:37:15;;;;;;;16.67;14.98;;;16.60;99.90;;;;;;5053135;28;20025;-71
2023/04/27 10:39:42;;;;;;;14.00;12.50;;;16.60;99.90;;;;;;5069644;28;20032;-72
2023/04/27 10:42:08;;;;;;;13.48;11.02;;;16.60;99.90;;;;;;5051859;28;20048;-72
2023/04/27 10:44:35;;;;;;;12.63;11.43;;;16.60;99.90;;;;;;5050835;28;20510;-72
2023/04/27 10:47:12;;;;;;;12.23;11.15;;;16.50;99.90;;;;;;5053351;28;20478;-72
2023/04/27 10:49:38;;;;;;;12.20;10.90;;;16.60;99.90;;;;;;5055496;28;20032;-72
2023/04/27 10:52:05;;;;;;;11.27;10.10;;;16.50;99.90;;;;;;5070257;28;20048;-72
2023/04/27 10:54:31;;;;;;;10.20;9.20;;;16.50;99.90;;;;;;5069935;28;20032;-72
2023/04/27 10:57:08;;;;;;;9.90;8.90;;;16.60;99.90;;;;;;5070509;28;20395;-72
2023/04/27 10:59:45;;;;;;;11.45;8.93;;;16.60;99.90;;;;;;5069303;28;20498;-72
2023/04/27 11:02:11;;;;;;;9.13;8.23;;;16.70;99.90;;;;;;5038500;28;20531;-71
2023/04/27 11:04:41;;;;;;;9.32;8.13;;;16.70;99.90;;;;;;5054216;28;20048;-71
2023/04/27 11:07:07;;;;;;;8.23;7.43;;;16.70;99.90;;;;;;5072570;28;20528;-72
2023/04/27 11:09:36;;;;;;;7.10;6.07;;;16.60;99.90;;;;;;5074726;28;20028;-72
2023/04/27 11:12:06;;;;;;;6.50;5.50;;;16.60;99.90;;;;;;5073686;28;20048;-72
2023/04/27 11:14:33;;;;;;;6.15;5.60;;;16.60;99.90;;;;;;5071519;28;20027;-72
2023/04/27 11:16:59;;;;;;;5.10;4.60;;;16.70;99.90;;;;;;5072405;28;20398;-72
2023/04/27 11:19:26;;;;;;;4.95;4.50;;;16.70;99.90;;;;;;5074406;28;20035;-72
2023/04/27 11:21:52;;;;;;;6.38;4.80;;;16.70;99.90;;;;;;5073155;28;20059;-72
2023/04/27 11:24:18;;;;;;;5.28;4.78;;;16.80;99.90;;;;;;5058237;28;20036;-72
2023/04/27 11:26:50;;;;;;;5.18;4.78;;;16.80;99.90;;;;;;5050956;28;20033;-72
2023/04/27 11:29:16;;;;;;;9.38;4.97;;;16.90;99.90;;;;;;5053502;28;20029;-72
2023/04/27 11:31:47;;;;;;;4.65;4.25;;;16.90;99.90;;;;;;5053902;28;20048;-72
2023/04/27 11:34:16;;;;;;;5.93;4.60;;;16.90;99.90;;;;;;5068363;28;20367;-72
2023/04/27 11:36:43;;;;;;;5.53;4.97;;;16.90;99.90;;;;;;5071728;28;20039;-72
2023/04/27 11:39:17;;;;;;;5.25;4.75;;;16.70;99.90;;;;;;5073116;28;20025;-71
2023/04/27 11:41:45;;;;;;;5.85;4.78;;;16.60;99.90;;;;;;5073082;28;20395;-72
2023/04/27 11:44:11;;;;;;;6.90;4.90;;;16.60;99.90;;;;;;5066394;28;20024;-72
2023/04/27 11:46:37;;;;;;;4.90;4.50;;;16.60;99.90;;;;;;5070704;28;20399;-72
2023/04/27 11:49:04;;;;;;;5.53;4.90;;;16.70;99.90;;;;;;5070922;28;20475;-72
2023/04/27 11:51:34;;;;;;;6.32;5.38;;;16.70;99.90;;;;;;5072172;28;20040;-72
2023/04/27 11:54:02;;;;;;;5.70;5.20;;;16.60;99.90;;;;;;5070409;28;20024;-72
2023/04/27 11:56:38;;;;;;;8.40;6.07;;;16.70;99.90;;;;;;5070014;28;20036;-71
2023/04/27 11:59:05;;;;;;;6.43;5.82;;;16.70;99.90;;;;;;5071744;28;20035;-72
2023/04/27 12:01:32;;;;;;;6.82;6.03;;;16.80;99.90;;;;;;5073197;28;20060;-72
2023/04/27 12:04:00;;;;;;;7.40;6.70;;;16.60;99.90;;;;;;5071671;28;20029;-72
2023/04/27 12:06:27;;;;;;;7.18;6.05;;;16.60;99.90;;;;;;5063688;28;20487;-71
2023/04/27 12:08:55;;;;;;;9.20;6.20;;;16.60;99.90;;;;;;5071869;28;20052;-72
2023/04/27 12:11:23;;;;;;;7.07;6.38;;;16.70;99.90;;;;;;5069620;28;20047;-72
2023/04/27 12:13:49;;;;;;;7.47;6.72;;;16.70;99.90;;;;;;5070027;28;20036;-72
2023/04/27 12:16:16;;;;;;;7.45;6.75;;;16.90;99.90;;;;;;5072223;28;20036;-72
2023/04/27 12:18:42;;;;;;;6.53;6.03;;;16.90;99.90;;;;;;5073628;28;20045;-72
2023/04/27 12:21:09;;;;;;;6.90;5.68;;;16.80;99.90;;;;;;5063184;28;20025;-72
2023/04/27 12:23:35;;;;;;;7.30;6.60;;;16.70;99.90;;;;;;5068354;28;20363;-72
2023/04/27 12:26:02;;;;;;;7.13;6.45;;;16.60;99.90;;;;;;5060680;28;20060;-72
2023/04/27 12:28:28;;;;;;;8.13;7.00;;;16.60;99.90;;;;;;5069001;28;20387;-72
2023/04/27 12:30:54;;;;;;;7.55;6.85;;;16.60;99.90;;;;;;5071251;28;20070;-72
2023/04/27 12:33:20;;;;;;;7.82;7.13;;;16.70;99.90;;;;;;5073531;28;20488;-72
2023/04/27 12:35:46;;;;;;;8.43;7.40;;;16.80;99.90;;;;;;5055499;28;20055;-71
2023/04/27 12:38:13;;;;;;;8.50;7.68;;;16.90;99.90;;;;;;5073028;28;20049;-72
2023/04/27 12:40:39;;;;;;;9.57;8.57;;;17.00;99.90;;;;;;5072774;28;20368;-72